createdAt,value
2019-02-21T00:00:56.080Z,10.72
2019-02-21T00:03:20.668Z,10.90
2019-02-21T00:05:45.081Z,10.96
2019-02-21T00:10:49.069Z,10.43
2019-02-21T00:16:10.806Z,10.58
2019-02-21T00:18:35.243Z,10.86
2019-02-21T00:20:59.660Z,11.00
2019-02-21T00:23:24.108Z,10.93
2019-02-21T00:25:48.525Z,10.77
2019-02-21T00:28:12.932Z,10.94
2019-02-21T00:30:37.436Z,10.79
2019-02-21T00:33:01.855Z,10.99
2019-02-21T00:35:26.372Z,10.90
2019-02-21T00:37:50.781Z,10.45
2019-02-21T00:40:15.212Z,10.96
2019-02-21T00:42:39.607Z,10.40
2019-02-21T00:45:04.291Z,10.38
2019-02-21T00:47:28.765Z,9.77
2019-02-21T00:52:32.188Z,9.75
2019-02-21T00:55:08.948Z,9.91
2019-02-21T00:57:33.354Z,9.84
2019-02-21T01:02:33.592Z,9.87
2019-02-21T01:04:58.085Z,9.88
2019-02-21T01:07:22.515Z,9.95
2019-02-21T01:09:46.924Z,9.97
2019-02-21T01:12:11.357Z,9.77
2019-02-21T01:14:35.770Z,9.95
2019-02-21T01:17:00.196Z,9.64
2019-02-21T01:19:24.618Z,9.81
2019-02-21T01:21:49.043Z,9.37
2019-02-21T01:24:13.458Z,9.82
2019-02-21T01:26:37.999Z,9.67
2019-02-21T01:29:02.481Z,9.80
2019-02-21T01:31:26.914Z,9.96
2019-02-21T01:36:27.824Z,9.33
2019-02-21T01:38:52.260Z,9.48
2019-02-21T01:41:16.687Z,9.55
2019-02-21T01:43:41.092Z,9.52
2019-02-21T01:48:42.080Z,9.61
2019-02-21T01:51:06.541Z,9.80
2019-02-21T01:53:31.011Z,9.95
2019-02-21T02:01:09.047Z,10.44
2019-02-21T02:03:40.012Z,10.35
2019-02-21T02:06:04.570Z,9.94
2019-02-21T02:08:35.030Z,9.81
2019-02-21T02:10:59.428Z,9.89
2019-02-21T02:13:24.991Z,9.49
2019-02-21T02:18:31.544Z,9.64
2019-02-21T02:21:01.959Z,9.64
2019-02-21T02:23:26.404Z,9.95
2019-02-21T02:25:50.807Z,9.56
2019-02-21T02:28:15.241Z,9.56
2019-02-21T02:30:39.662Z,9.57
2019-02-21T02:33:04.086Z,9.33
2019-02-21T02:35:28.518Z,9.38
2019-02-21T02:37:52.914Z,9.11
2019-02-21T02:40:17.343Z,9.43
2019-02-21T02:42:41.823Z,9.72
2019-02-21T02:45:27.049Z,9.47
2019-02-21T02:47:51.459Z,9.45
2019-02-21T02:50:15.897Z,9.49
2019-02-21T02:52:40.312Z,9.39
2019-02-21T02:55:16.138Z,9.37
2019-02-21T02:57:40.542Z,9.33
2019-02-21T03:03:01.479Z,9.37
2019-02-21T03:05:25.914Z,9.47
2019-02-21T03:07:50.328Z,9.47
2019-02-21T03:10:14.913Z,9.41
2019-02-21T03:12:39.383Z,9.54
2019-02-21T03:15:14.777Z,9.31
2019-02-21T03:17:39.265Z,9.34
2019-02-21T03:20:14.845Z,9.51
2019-02-21T03:22:39.248Z,9.51
2019-02-21T03:25:04.236Z,9.57
2019-02-21T03:27:28.643Z,9.57
2019-02-21T03:29:53.050Z,9.43
2019-02-21T03:32:17.515Z,9.49
2019-02-21T03:37:18.113Z,9.31
2019-02-21T03:39:42.525Z,9.71
2019-02-21T03:42:07.053Z,9.63
2019-02-21T03:44:31.450Z,9.60
2019-02-21T03:46:55.913Z,9.44
2019-02-21T03:49:20.316Z,9.30
2019-02-21T03:54:21.217Z,9.49
2019-02-21T03:56:45.679Z,9.56
2019-02-21T03:59:10.229Z,9.38
2019-02-21T04:01:34.727Z,9.55
2019-02-21T04:03:59.203Z,9.66
2019-02-21T04:06:23.702Z,9.36
2019-02-21T04:08:48.188Z,9.42
2019-02-21T04:11:12.593Z,9.62
2019-02-21T04:16:12.878Z,9.46
2019-02-21T04:18:37.299Z,9.57
2019-02-21T04:21:01.742Z,9.50
2019-02-21T04:23:26.130Z,9.60
2019-02-21T04:25:50.531Z,9.69
2019-02-21T04:30:51.282Z,9.31
2019-02-21T04:33:15.718Z,9.52
2019-02-21T04:35:40.131Z,9.30
2019-02-21T04:40:40.648Z,9.51
2019-02-21T04:45:41.637Z,9.57
2019-02-21T04:48:06.069Z,9.78
2019-02-21T04:50:30.475Z,9.99
2019-02-21T04:52:54.879Z,9.52
2019-02-21T04:57:58.218Z,9.64
2019-02-21T05:02:58.186Z,9.64
2019-02-21T05:05:22.630Z,10.01
2019-02-21T05:07:47.048Z,9.73
2019-02-21T05:10:11.632Z,10.05
2019-02-21T05:12:36.062Z,9.99
2019-02-21T05:20:12.488Z,9.46
2019-02-21T05:22:36.976Z,9.45
2019-02-21T05:25:01.428Z,9.47
2019-02-21T05:30:00.935Z,9.70
2019-02-21T05:32:44.468Z,9.60
2019-02-21T05:38:03.868Z,9.40
2019-02-21T05:40:47.419Z,9.41
2019-02-21T05:43:31.546Z,9.75
2019-02-21T05:46:15.295Z,9.23
2019-02-21T05:48:58.846Z,9.66
2019-02-21T05:54:18.049Z,9.36
2019-02-21T05:57:01.611Z,9.20
2019-02-21T05:59:45.144Z,9.49
2019-02-21T06:02:28.701Z,9.18
2019-02-21T06:05:12.240Z,9.72
2019-02-21T06:08:08.476Z,9.40
2019-02-21T06:13:27.897Z,9.25
2019-02-21T06:16:11.441Z,9.49
2019-02-21T06:18:55.005Z,9.51
2019-02-21T06:21:38.580Z,9.22
2019-02-21T06:24:22.137Z,9.20
2019-02-21T06:31:57.288Z,9.19
2019-02-21T06:34:21.701Z,9.46
2019-02-21T06:36:46.129Z,9.33
2019-02-21T06:39:10.579Z,8.87
2019-02-21T06:41:34.984Z,8.96
2019-02-21T06:43:59.419Z,9.09
2019-02-21T06:49:00.274Z,8.90
2019-02-21T06:51:24.682Z,9.13
2019-02-21T06:53:49.115Z,9.27
2019-02-21T06:58:49.278Z,8.99
2019-02-21T07:01:13.702Z,9.11
2019-02-21T07:03:38.175Z,9.05
2019-02-21T07:06:02.600Z,9.03
2019-02-21T07:08:27.017Z,9.01
2019-02-21T07:10:51.460Z,9.04
2019-02-21T07:13:26.054Z,9.30
2019-02-21T07:18:23.848Z,9.11
2019-02-21T07:20:53.561Z,8.97
2019-02-21T07:23:17.982Z,9.01
2019-02-21T07:26:01.532Z,8.94
2019-02-21T07:31:02.107Z,9.11
2019-02-21T07:38:38.539Z,9.18
2019-02-21T07:41:03.089Z,8.83
2019-02-21T07:43:40.020Z,8.98
2019-02-21T07:46:06.878Z,8.83
2019-02-21T07:48:36.602Z,9.01
2019-02-21T07:53:43.304Z,9.29
2019-02-21T07:56:07.883Z,9.43
2019-02-21T07:58:32.361Z,9.37
2019-02-21T08:00:56.903Z,9.40
2019-02-21T08:03:29.772Z,9.30
2019-02-21T08:06:05.548Z,9.30
2019-02-21T08:08:32.352Z,9.32
2019-02-21T08:11:16.799Z,9.09
2019-02-21T08:13:41.268Z,9.01
2019-02-21T08:16:18.194Z,9.10
2019-02-21T08:18:42.611Z,9.33
2019-02-21T08:21:07.071Z,9.03
2019-02-21T08:23:32.495Z,9.04
2019-02-21T08:26:06.582Z,9.17
2019-02-21T08:28:30.982Z,9.15
2019-02-21T08:38:43.739Z,9.49
2019-02-21T08:41:08.155Z,9.50
2019-02-21T08:43:32.617Z,9.31
2019-02-21T08:45:57.685Z,9.03
2019-02-21T08:48:28.897Z,9.06
2019-02-21T08:50:53.319Z,9.16
2019-02-21T08:53:17.761Z,9.26
2019-02-21T08:55:42.202Z,9.51
2019-02-21T08:58:07.894Z,9.25
2019-02-21T09:00:38.449Z,9.43
2019-02-21T09:03:02.962Z,9.20
2019-02-21T09:05:27.528Z,9.30
2019-02-21T09:07:52.037Z,9.31
2019-02-21T09:10:16.527Z,9.21
2019-02-21T09:18:14.170Z,9.65
2019-02-21T09:20:47.777Z,9.81
2019-02-21T09:23:17.402Z,9.52
2019-02-21T09:25:41.793Z,9.94
2019-02-21T09:28:06.223Z,9.72
2019-02-21T09:30:30.784Z,9.94
2019-02-21T09:32:55.203Z,9.76
2019-02-21T09:35:19.643Z,10.12
2019-02-21T09:37:44.053Z,10.02
2019-02-21T09:43:05.766Z,10.04
2019-02-21T09:45:32.678Z,10.54
2019-02-21T09:48:14.948Z,10.77
2019-02-21T09:50:39.395Z,10.30
2019-02-21T09:55:39.897Z,10.82
2019-02-21T10:00:40.190Z,10.77
2019-02-21T10:03:04.682Z,11.27
2019-02-21T10:05:29.202Z,11.04
2019-02-21T10:07:53.608Z,10.92
2019-02-21T10:10:37.147Z,11.31
2019-02-21T10:13:20.644Z,11.64
2019-02-21T10:19:02.036Z,11.72
2019-02-21T10:21:45.555Z,11.44
2019-02-21T10:24:09.163Z,11.16
2019-02-21T10:26:47.978Z,11.17
2019-02-21T10:29:12.406Z,11.16
2019-02-21T10:31:36.859Z,11.02
2019-02-21T10:34:01.284Z,11.01
2019-02-21T10:36:25.803Z,10.91
2019-02-21T10:38:50.300Z,10.77
2019-02-21T10:43:50.766Z,11.68
2019-02-21T10:46:15.276Z,11.78
2019-02-21T10:48:39.696Z,11.54
2019-02-21T10:51:04.115Z,11.34
2019-02-21T10:53:28.577Z,11.81
2019-02-21T10:55:52.986Z,11.99
2019-02-21T10:58:17.443Z,11.69
2019-02-21T11:00:41.929Z,12.24
2019-02-21T11:03:06.457Z,11.98
2019-02-21T11:05:30.991Z,12.14
2019-02-21T11:07:55.447Z,11.76
2019-02-21T11:13:17.054Z,12.31
2019-02-21T11:18:21.076Z,12.01
2019-02-21T11:20:45.558Z,12.39
2019-02-21T11:23:09.987Z,11.84
2019-02-21T11:28:11.151Z,11.56
2019-02-21T11:30:35.635Z,11.95
2019-02-21T11:33:00.122Z,12.03
2019-02-21T11:35:24.602Z,12.62
2019-02-21T11:37:49.042Z,12.62
2019-02-21T11:43:10.803Z,13.84
2019-02-21T11:48:11.317Z,12.84
2019-02-21T11:50:35.824Z,11.85
2019-02-21T11:53:00.232Z,11.96
2019-02-21T12:00:57.704Z,12.62
2019-02-21T12:03:22.121Z,12.59
2019-02-21T12:05:46.554Z,11.89
2019-02-21T12:08:10.948Z,11.93
2019-02-21T12:10:35.391Z,12.07
2019-02-21T12:15:38.622Z,11.76
2019-02-21T12:20:38.826Z,11.41
2019-02-21T12:23:03.255Z,11.41
2019-02-21T12:25:27.740Z,11.44
2019-02-21T12:27:52.305Z,11.33
2019-02-21T12:30:37.541Z,11.82
2019-02-21T12:35:40.764Z,11.78
2019-02-21T12:38:05.329Z,11.30
2019-02-21T12:40:29.775Z,11.60
2019-02-21T12:42:54.189Z,11.50
2019-02-21T12:50:51.567Z,12.63
2019-02-21T12:53:16.360Z,12.45
2019-02-21T12:55:41.126Z,12.29
2019-02-21T12:58:05.688Z,11.71
2019-02-21T13:00:30.353Z,11.76
2019-02-21T13:02:54.892Z,11.94
2019-02-21T13:05:19.458Z,11.74
2019-02-21T13:13:19.388Z,12.16
2019-02-21T13:15:44.193Z,12.31
2019-02-21T13:18:15.858Z,12.49
2019-02-21T13:20:40.215Z,12.51
2019-02-21T13:23:04.794Z,12.48
2019-02-21T13:25:29.211Z,12.69
2019-02-21T13:33:05.956Z,12.10
2019-02-21T13:35:30.370Z,12.12
2019-02-21T13:40:30.515Z,11.61
2019-02-21T13:42:55.109Z,11.71
2019-02-21T13:45:19.544Z,11.81
2019-02-21T13:47:44.200Z,11.60
2019-02-21T13:50:29.733Z,11.83
2019-02-21T13:52:54.254Z,12.12
2019-02-21T13:57:55.026Z,11.84
2019-02-21T14:06:02.967Z,11.65
2019-02-21T14:08:23.448Z,11.65
2019-02-21T14:10:47.866Z,11.84
2019-02-21T14:13:12.685Z,12.13
2019-02-21T14:18:13.508Z,11.67
2019-02-21T14:20:45.378Z,11.78
2019-02-21T14:23:10.428Z,11.82
2019-02-21T14:25:40.833Z,12.06
2019-02-21T14:28:06.486Z,11.73
2019-02-21T14:30:31.241Z,12.04
2019-02-21T14:32:55.667Z,11.54
2019-02-21T14:35:31.150Z,11.74
2019-02-21T14:37:55.584Z,11.79
2019-02-21T14:42:59.458Z,11.74
2019-02-21T14:45:44.717Z,11.72
2019-02-21T14:48:09.220Z,12.04
2019-02-21T14:50:35.922Z,11.90
2019-02-21T14:53:19.196Z,12.07
2019-02-21T14:55:43.693Z,12.21
2019-02-21T14:58:08.115Z,12.50
2019-02-21T15:00:32.687Z,12.04
2019-02-21T15:02:57.960Z,11.84
2019-02-21T15:05:40.783Z,11.96
2019-02-21T15:08:05.528Z,11.99
2019-02-21T15:10:29.992Z,12.12
2019-02-21T15:12:54.549Z,12.33
2019-02-21T15:18:15.508Z,12.30
2019-02-21T15:20:40.013Z,12.68
2019-02-21T15:23:04.531Z,12.33
2019-02-21T15:25:28.958Z,12.05
2019-02-21T15:27:53.425Z,11.89
2019-02-21T15:30:37.224Z,11.62
2019-02-21T15:33:01.727Z,11.78
2019-02-21T15:35:26.154Z,11.84
2019-02-21T15:37:50.681Z,12.19
2019-02-21T15:40:15.176Z,11.91
2019-02-21T15:42:39.706Z,11.79
2019-02-21T15:48:01.363Z,11.66
2019-02-21T15:50:25.858Z,11.78
2019-02-21T15:55:32.122Z,11.99
2019-02-21T15:58:04.322Z,11.96
2019-02-21T16:00:33.831Z,12.06
2019-02-21T16:02:58.279Z,12.05
2019-02-21T16:05:22.836Z,11.65
2019-02-21T16:07:47.358Z,11.43
2019-02-21T16:10:31.143Z,11.56
2019-02-21T16:12:56.431Z,11.51
2019-02-21T16:15:30.795Z,11.40
2019-02-21T16:18:14.615Z,11.41
2019-02-21T16:20:39.047Z,11.35
2019-02-21T16:23:03.565Z,11.21
2019-02-21T16:31:01.051Z,11.30
2019-02-21T16:33:25.472Z,11.23
2019-02-21T16:35:49.900Z,11.15
2019-02-21T16:38:14.326Z,11.09
2019-02-21T16:40:39.048Z,11.33
2019-02-21T16:43:03.468Z,11.05
2019-02-21T16:45:34.231Z,11.13
2019-02-21T16:47:59.687Z,11.06
2019-02-21T16:50:29.804Z,11.06
2019-02-21T16:52:55.993Z,11.16
2019-02-21T16:55:41.236Z,10.96
2019-02-21T16:58:05.655Z,10.81
2019-02-21T17:00:42.037Z,10.94
2019-02-21T17:06:03.501Z,10.90
2019-02-21T17:08:33.197Z,11.12
2019-02-21T17:10:57.673Z,11.14
2019-02-21T17:13:22.243Z,10.89
2019-02-21T17:15:46.695Z,10.94
2019-02-21T17:18:11.124Z,10.73
2019-02-21T17:20:35.649Z,10.79
2019-02-21T17:23:00.239Z,10.70
2019-02-21T17:30:36.867Z,10.62
2019-02-21T17:33:01.368Z,10.73
2019-02-21T17:35:25.893Z,10.56
2019-02-21T17:40:27.104Z,10.42
2019-02-21T17:42:51.601Z,10.28
2019-02-21T17:45:16.006Z,10.05
2019-02-21T17:47:40.976Z,10.28
2019-02-21T17:53:02.111Z,10.02
2019-02-21T17:58:02.344Z,10.39
2019-02-21T18:00:46.000Z,10.39
2019-02-21T18:03:10.513Z,10.24
2019-02-21T18:05:35.031Z,10.26
2019-02-21T18:07:59.480Z,10.14
2019-02-21T18:10:24.073Z,9.95
2019-02-21T18:12:48.605Z,10.29
2019-02-21T18:18:09.692Z,10.12
2019-02-21T18:20:34.120Z,10.04
2019-02-21T18:22:58.735Z,9.96
2019-02-21T18:28:22.533Z,10.29
2019-02-21T18:30:47.204Z,10.31
2019-02-21T18:33:11.644Z,10.39
2019-02-21T18:35:36.221Z,10.16
2019-02-21T18:38:00.762Z,10.27
2019-02-21T18:43:21.775Z,9.98
2019-02-21T18:45:46.211Z,10.09
2019-02-21T18:48:10.664Z,10.03
2019-02-21T18:50:38.165Z,10.17
2019-02-21T18:53:06.715Z,10.00
2019-02-21T18:55:31.162Z,10.09
2019-02-21T18:57:55.680Z,10.09
2019-02-21T19:03:16.934Z,9.82
2019-02-21T19:08:20.604Z,10.12
2019-02-21T19:10:45.119Z,9.95
2019-02-21T19:13:09.669Z,10.04
2019-02-21T19:18:09.838Z,9.82
2019-02-21T19:20:34.480Z,9.87
2019-02-21T19:22:59.103Z,9.96
2019-02-21T19:25:23.519Z,9.90
2019-02-21T19:27:48.133Z,9.97
2019-02-21T19:33:09.269Z,10.01
2019-02-21T19:38:11.023Z,10.14
2019-02-21T19:45:57.085Z,9.86
2019-02-21T19:50:58.024Z,10.01
2019-02-21T19:53:22.548Z,10.07
2019-02-21T19:55:47.063Z,9.75
2019-02-21T19:58:11.575Z,9.86
2019-02-21T20:03:11.350Z,9.81
2019-02-21T20:05:35.873Z,9.90
2019-02-21T20:08:08.228Z,9.78
2019-02-21T20:10:31.607Z,9.79
2019-02-21T20:15:32.141Z,9.98
2019-02-21T20:17:56.633Z,9.81
2019-02-21T20:23:18.139Z,9.61
2019-02-21T20:25:54.678Z,10.13
2019-02-21T20:28:19.256Z,9.91
2019-02-21T20:30:43.733Z,10.19
2019-02-21T20:33:08.139Z,10.24
2019-02-21T20:35:32.673Z,9.96
2019-02-21T20:37:57.174Z,10.00
2019-02-21T20:40:21.638Z,9.97
2019-02-21T20:42:46.063Z,10.00
2019-02-21T20:45:29.949Z,9.96
2019-02-21T20:47:54.427Z,10.07
2019-02-21T20:52:54.910Z,10.04
2019-02-21T20:55:19.410Z,9.87
2019-02-21T21:00:34.424Z,9.68
2019-02-21T21:05:38.476Z,9.91
2019-02-21T21:08:02.976Z,9.96
2019-02-21T21:13:03.584Z,10.12
2019-02-21T21:15:28.107Z,10.23
2019-02-21T21:17:52.532Z,10.08
2019-02-21T21:20:17.677Z,10.48
2019-02-21T21:23:01.275Z,9.92
2019-02-21T21:30:38.370Z,10.20
2019-02-21T21:33:02.792Z,9.84
2019-02-21T21:35:27.259Z,10.17
2019-02-21T21:37:51.673Z,10.15
2019-02-21T21:43:13.184Z,10.18
2019-02-21T21:45:37.776Z,10.16
2019-02-21T21:48:02.210Z,10.19
2019-02-21T21:50:26.707Z,10.30
2019-02-21T21:52:51.238Z,10.19
2019-02-21T21:55:15.902Z,9.90
2019-02-21T21:57:40.407Z,10.00
2019-02-21T22:03:02.266Z,10.48
2019-02-21T22:05:26.762Z,10.33
2019-02-21T22:07:51.212Z,10.62
2019-02-21T22:13:12.218Z,10.59
2019-02-21T22:15:36.699Z,10.62
2019-02-21T22:18:01.157Z,10.54
2019-02-21T22:20:25.569Z,11.10
2019-02-21T22:22:50.026Z,11.26
2019-02-21T22:25:37.262Z,10.73
2019-02-21T22:28:10.522Z,10.39
2019-02-21T22:30:34.954Z,10.38
2019-02-21T22:35:35.767Z,11.13
2019-02-21T22:38:00.213Z,10.34
2019-02-21T22:40:24.639Z,10.58
2019-02-21T22:42:49.057Z,10.48
2019-02-21T22:45:13.669Z,11.18
2019-02-21T22:47:38.097Z,11.15
2019-02-21T22:52:38.717Z,10.43
2019-02-21T22:57:39.604Z,10.35
2019-02-21T23:06:35.122Z,10.84
2019-02-21T23:11:36.026Z,11.44
2019-02-21T23:14:00.524Z,11.76
2019-02-21T23:16:25.236Z,11.29
2019-02-21T23:24:22.919Z,10.79
2019-02-21T23:26:47.436Z,11.30
2019-02-21T23:29:12.021Z,10.93
2019-02-21T23:34:31.602Z,11.15
2019-02-21T23:36:56.026Z,11.46
2019-02-21T23:41:56.518Z,11.45
2019-02-21T23:52:09.635Z,11.72
2019-02-21T23:54:34.114Z,11.84
2019-02-21T23:56:58.564Z,11.64
2019-02-21T23:59:22.983Z,11.66
